Time;durP1;ratioP1;P1;durP2;ratioP2;P2;SDS_P1;SDS_P2;PMS_P1;PMS_P2;Temp;Humidity;BMP_temperature;BMP_pressure;BME280_temperature;BME280_humidity;BME280_pressure;Samples;Min_cycle;Max_cycle;Signal;HPM_P1;HPM_P2
2021/08/03 00:00:55;;;;;;;1.83;1.38;;;;;;;13.78;100.00;95835.28;5032796;28;20419;-73
2021/08/03 00:03:26;;;;;;;4.57;1.65;;;;;;;13.77;100.00;95832.81;5032473;28;20411;-73
2021/08/03 00:05:54;;;;;;;2.10;1.35;;;;;;;13.79;100.00;95830.91;5032376;28;20776;-72
2021/08/03 00:08:23;;;;;;;1.52;1.17;;;;;;;13.86;100.00;95821.69;5032923;28;20446;-72
2021/08/03 00:10:50;;;;;;;2.35;1.50;;;;;;;13.75;100.00;95821.66;5032525;28;20798;-72
2021/08/03 00:13:17;;;;;;;2.90;1.35;;;;;;;13.79;100.00;95817.88;5032547;28;20924;-73
2021/08/03 00:15:43;;;;;;;4.72;1.38;;;;;;;13.84;100.00;95814.97;5032209;28;20492;-73
2021/08/03 00:18:09;;;;;;;2.03;1.58;;;;;;;13.75;100.00;95816.44;5032764;28;20954;-73
2021/08/03 00:20:36;;;;;;;3.25;1.52;;;;;;;13.75;100.00;95819.88;5032590;28;20411;-73
2021/08/03 00:23:02;;;;;;;1.83;1.20;;;;;;;13.62;100.00;95808.75;5032412;28;20507;-72
2021/08/03 00:25:28;;;;;;;3.17;1.40;;;;;;;13.50;100.00;95807.06;5032024;28;20505;-72
2021/08/03 00:27:54;;;;;;;2.90;1.27;;;;;;;13.52;100.00;95807.75;5032261;28;20411;-73
2021/08/03 00:30:22;;;;;;;1.10;1.00;;;;;;;13.56;100.00;95803.97;5032037;28;20458;-73
2021/08/03 00:32:48;;;;;;;1.80;1.05;;;;;;;13.54;100.00;95801.50;5032164;28;20415;-72
2021/08/03 00:35:13;;;;;;;6.20;1.50;;;;;;;13.51;100.00;95806.09;5031780;28;20407;-73
2021/08/03 00:37:39;;;;;;;1.90;1.13;;;;;;;13.44;100.00;95802.28;5032115;28;20415;-73
2021/08/03 00:40:07;;;;;;;2.10;1.20;;;;;;;13.55;100.00;95807.53;5031982;28;20443;-74
2021/08/03 00:42:33;;;;;;;4.53;1.45;;;;;;;13.45;100.00;95802.16;5031917;28;20784;-73
2021/08/03 00:44:58;;;;;;;2.70;1.37;;;;;;;13.43;100.00;95804.06;5031747;28;20503;-73
2021/08/03 00:47:26;;;;;;;5.50;1.30;;;;;;;13.52;100.00;95803.38;5031652;28;20445;-72
2021/08/03 00:49:52;;;;;;;1.55;1.20;;;;;;;13.56;100.00;95798.78;5031934;28;20427;-72
2021/08/03 00:52:17;;;;;;;1.30;1.20;;;;;;;13.58;100.00;95794.31;5031655;28;20437;-72
2021/08/03 00:54:43;;;;;;;3.00;1.43;;;;;;;13.62;100.00;95800.94;5031578;28;20419;-73
2021/08/03 00:57:10;;;;;;;2.50;1.10;;;;;;;13.61;100.00;95799.28;5030180;28;20534;-73
2021/08/03 00:59:36;;;;;;;2.53;1.30;;;;;;;13.62;100.00;95802.72;5031686;28;20421;-73
2021/08/03 01:02:03;;;;;;;1.47;1.20;;;;;;;13.65;100.00;95807.69;5031777;28;20510;-72
2021/08/03 01:04:30;;;;;;;2.70;1.13;;;;;;;13.71;100.00;95805.44;5031476;28;20423;-72
2021/08/03 01:07:02;;;;;;;2.88;1.10;;;;;;;13.72;100.00;95804.53;5031287;28;20411;-73
2021/08/03 01:09:36;;;;;;;3.07;1.27;;;;;;;13.72;100.00;95801.91;5030189;28;20446;-73
2021/08/03 01:12:10;;;;;;;1.85;1.10;;;;;;;13.70;100.00;95811.59;5031344;28;20431;-73
2021/08/03 01:14:38;;;;;;;2.13;1.02;;;;;;;13.67;100.00;95814.41;5030542;28;20415;-73
2021/08/03 01:17:12;;;;;;;2.10;1.20;;;;;;;13.60;100.00;95807.19;5031025;28;20422;-73
2021/08/03 01:19:48;;;;;;;1.60;1.08;;;;;;;13.56;100.00;95803.97;5031285;28;20899;-73
2021/08/03 01:22:32;;;;;;;2.75;1.23;;;;;;;13.52;100.00;95808.56;5031297;28;20848;-74
2021/08/03 01:25:14;;;;;;;4.22;1.20;;;;;;;13.46;100.00;95805.59;5031101;28;20414;-72
2021/08/03 01:28:12;;;;;;;4.97;1.30;;;;;;;13.44;100.00;95805.72;5031256;28;20450;-72
2021/08/03 01:30:43;;;;;;;2.60;1.05;;;;;;;13.41;100.00;95799.91;5023940;28;20785;-72
2021/08/03 01:33:11;;;;;;;5.35;1.10;;;;;;;13.49;100.00;95797.56;5031114;28;20423;-72
2021/08/03 01:35:40;;;;;;;4.63;1.10;;;;;;;13.46;100.00;95798.66;5030681;28;20912;-72
2021/08/03 01:38:06;;;;;;;1.85;1.00;;;;;;;13.49;100.00;95794.97;5031167;28;20769;-73
2021/08/03 01:40:33;;;;;;;2.10;1.00;;;;;;;13.59;100.00;95793.34;5030949;28;20411;-73
2021/08/03 01:43:01;;;;;;;2.20;1.10;;;;;;;13.67;100.00;95801.41;5030984;28;20422;-72
2021/08/03 01:45:27;;;;;;;5.30;1.08;;;;;;;13.63;100.00;95797.38;5030415;28;20430;-73
2021/08/03 01:47:54;;;;;;;5.88;1.40;;;;;;;13.58;100.00;95802.09;5030821;28;20498;-73
2021/08/03 01:50:21;;;;;;;3.70;1.17;;;;;;;13.51;100.00;95800.91;5030917;28;20446;-73
2021/08/03 01:52:47;;;;;;;1.73;1.20;;;;;;;13.41;100.00;95789.50;5030865;28;20514;-73
2021/08/03 01:55:13;;;;;;;2.35;1.08;;;;;;;13.53;100.00;95791.19;5030452;28;20498;-72
2021/08/03 01:57:41;;;;;;;4.40;1.45;;;;;;;13.49;100.00;95793.19;5029476;28;20505;-73
2021/08/03 02:00:08;;;;;;;1.70;1.00;;;;;;;13.33;100.00;95787.47;5030719;28;20450;-73
2021/08/03 02:02:34;;;;;;;3.15;1.10;;;;;;;13.02;100.00;95787.06;5030795;28;20907;-72
2021/08/03 02:05:01;;;;;;;4.70;1.35;;;;;;;12.99;100.00;95795.09;5030577;28;20422;-72
2021/08/03 02:07:28;;;;;;;3.77;1.20;;;;;;;13.10;100.00;95798.69;5030358;28;20414;-73
2021/08/03 02:09:54;;;;;;;4.05;1.38;;;;;;;12.99;100.00;95786.47;5030577;28;20415;-73
2021/08/03 02:12:20;;;;;;;1.70;1.10;;;;;;;12.83;100.00;95790.16;5030471;28;20788;-72
2021/08/03 02:14:46;;;;;;;3.10;1.35;;;;;;;12.78;100.00;95779.25;5044430;23;20435;-74
2021/08/03 02:17:16;;;;;;;1.87;1.13;;;;;;;12.58;100.00;95787.66;5030305;28;20419;-74
2021/08/03 02:19:42;;;;;;;8.80;1.45;;;;;;;12.56;100.00;95784.31;5030600;28;20846;-74
2021/08/03 02:22:10;;;;;;;3.23;1.10;;;;;;;12.53;100.00;95784.53;5030532;28;20428;-74
2021/08/03 02:24:35;;;;;;;2.80;1.35;;;;;;;12.47;100.00;95780.59;5030449;28;20461;-75
2021/08/03 02:27:00;;;;;;;4.43;1.20;;;;;;;12.48;100.00;95774.47;5033144;28;20887;-74
2021/08/03 02:29:26;;;;;;;1.90;1.20;;;;;;;12.51;100.00;95776.84;5034592;28;20419;-73
2021/08/03 02:32:00;;;;;;;1.63;1.03;;;;;;;12.44;100.00;95775.63;5034385;28;20518;-75
2021/08/03 02:34:28;;;;;;;2.03;1.10;;;;;;;12.39;100.00;95766.50;5034744;28;20407;-75
2021/08/03 02:36:58;;;;;;;5.20;1.35;;;;;;;12.29;100.00;95769.72;5032880;28;20518;-75
2021/08/03 02:39:26;;;;;;;3.28;1.20;;;;;;;12.39;100.00;95764.72;5034278;28;20422;-74
2021/08/03 02:41:53;;;;;;;4.60;1.17;;;;;;;12.35;100.00;95761.53;5034278;28;20498;-74
2021/08/03 02:44:21;;;;;;;2.15;1.23;;;;;;;12.32;100.00;95761.72;5034274;28;20411;-74
2021/08/03 02:46:50;;;;;;;1.77;1.15;;;;;;;12.38;100.00;95763.06;5034031;28;20898;-74
2021/08/03 02:49:17;;;;;;;1.55;1.10;;;;;;;12.51;100.00;95756.06;5034239;28;20426;-74
2021/08/03 02:51:44;;;;;;;4.32;1.13;;;;;;;12.47;100.00;95756.41;5032920;28;20982;-74
2021/08/03 02:54:22;;;;;;;1.92;1.17;;;;;;;12.53;100.00;95751.59;5033948;28;20422;-76
2021/08/03 02:56:51;;;;;;;3.15;1.10;;;;;;;12.70;100.00;95752.16;5033835;28;20927;-76
2021/08/03 02:59:18;;;;;;;1.88;1.13;;;;;;;12.76;100.00;95756.94;5032728;28;20451;-74
2021/08/03 03:01:44;;;;;;;3.10;1.30;;;;;;;12.64;100.00;95760.38;5032690;28;20477;-74
2021/08/03 03:04:19;;;;;;;5.60;1.17;;;;;;;12.65;100.00;95752.50;5033648;28;20415;-74
2021/08/03 03:06:51;;;;;;;3.20;1.23;;;;;;;12.75;100.00;95752.66;5033342;28;20494;-75
2021/08/03 03:09:20;;;;;;;1.90;1.20;;;;;;;12.69;100.00;95745.31;5033734;28;20499;-74
2021/08/03 03:11:46;;;;;;;2.10;1.30;;;;;;;12.70;100.00;95741.78;5033858;28;20521;-74
2021/08/03 03:14:14;;;;;;;1.30;0.90;;;;;;;12.81;100.00;95737.47;5033525;28;20481;-74
2021/08/03 03:16:41;;;;;;;2.40;1.08;;;;;;;12.93;100.00;95735.72;5033453;28;20411;-74
2021/08/03 03:19:08;;;;;;;3.22;1.05;;;;;;;12.98;100.00;95738.84;5033421;28;20434;-74
2021/08/03 03:21:34;;;;;;;1.80;1.10;;;;;;;12.99;100.00;95730.09;5033480;28;20768;-74
2021/08/03 03:24:01;;;;;;;3.45;1.27;;;;;;;13.05;100.00;95726.22;5032223;28;20852;-74
2021/08/03 03:26:31;;;;;;;1.48;1.00;;;;;;;13.10;100.00;95731.09;5033772;28;20752;-74
2021/08/03 03:28:59;;;;;;;2.10;1.10;;;;;;;13.10;100.00;95728.50;5033349;28;20434;-75
2021/08/03 03:31:29;;;;;;;1.27;1.00;;;;;;;13.14;100.00;95727.31;5033187;28;20450;-74
2021/08/03 03:33:56;;;;;;;1.60;1.10;;;;;;;13.17;100.00;95727.94;5033670;28;20411;-75
2021/08/03 03:36:25;;;;;;;2.70;1.10;;;;;;;13.19;100.00;95731.22;5033100;28;20488;-74
2021/08/03 03:38:52;;;;;;;2.05;1.20;;;;;;;13.15;100.00;95732.41;5032542;28;20415;-74
2021/08/03 03:41:17;;;;;;;1.95;1.00;;;;;;;13.08;100.00;95726.81;5033205;28;20450;-74
2021/08/03 03:43:43;;;;;;;1.70;0.90;;;;;;;12.99;100.00;95714.50;5033242;28;20895;-74
2021/08/03 03:46:14;;;;;;;2.33;1.10;;;;;;;13.03;100.00;95717.72;5032618;28;20668;-74
2021/08/03 03:48:47;;;;;;;2.72;1.00;;;;;;;13.04;100.00;95711.56;5033153;28;20415;-74
2021/08/03 03:51:15;;;;;;;3.97;1.35;;;;;;;13.12;100.00;95717.00;5032887;28;20423;-74
2021/08/03 03:53:45;;;;;;;2.25;1.08;;;;;;;13.12;100.00;95713.59;5033006;28;20411;-74
2021/08/03 03:56:15;;;;;;;2.00;1.30;;;;;;;13.08;100.00;95708.59;5032545;28;20418;-74
2021/08/03 03:58:43;;;;;;;1.55;1.10;;;;;;;12.98;100.00;95715.44;5032839;28;20415;-74
2021/08/03 04:01:13;;;;;;;3.92;1.35;;;;;;;12.88;100.00;95716.22;5032766;28;20423;-74
2021/08/03 04:03:42;;;;;;;2.67;1.13;;;;;;;12.83;100.00;95727.78;5033054;28;20831;-74
2021/08/03 04:06:08;;;;;;;1.95;0.98;;;;;;;12.84;100.00;95720.81;5032344;28;20407;-75
2021/08/03 04:08:37;;;;;;;3.80;1.30;;;;;;;12.88;100.00;95724.84;5032751;28;20465;-75
2021/08/03 04:11:02;;;;;;;2.20;1.00;;;;;;;12.84;100.00;95716.44;5031141;28;20430;-74
2021/08/03 04:13:28;;;;;;;3.10;1.30;;;;;;;12.69;100.00;95722.75;5032773;28;20406;-74
2021/08/03 04:15:53;;;;;;;4.70;1.20;;;;;;;12.45;100.00;95720.13;5032104;28;20787;-74
2021/08/03 04:18:19;;;;;;;2.13;1.10;;;;;;;12.26;100.00;95727.56;5047875;28;20418;-74
2021/08/03 04:20:45;;;;;;;4.50;1.50;;;;;;;12.12;100.00;95728.50;5032613;28;20411;-74
2021/08/03 04:23:11;;;;;;;2.33;0.80;;;;;;;12.06;100.00;95734.97;5032827;28;20481;-74
2021/08/03 04:25:36;;;;;;;1.83;1.08;;;;;;;12.14;100.00;95723.22;5032739;28;20900;-74
2021/08/03 04:28:02;;;;;;;1.50;1.15;;;;;;;12.28;100.00;95730.91;5032477;28;20414;-74
2021/08/03 04:30:29;;;;;;;1.65;1.05;;;;;;;12.33;100.00;95718.41;5032418;28;20857;-74
2021/08/03 04:32:54;;;;;;;1.10;0.80;;;;;;;12.36;100.00;95728.59;5032349;28;20779;-74
2021/08/03 04:35:20;;;;;;;2.43;1.10;;;;;;;12.23;100.00;95726.00;5031777;28;20403;-74
2021/08/03 04:37:48;;;;;;;2.80;1.37;;;;;;;12.42;100.00;95720.38;5032112;28;20465;-74
2021/08/03 04:40:16;;;;;;;2.75;1.08;;;;;;;12.45;100.00;95721.91;5032326;28;20836;-74
2021/08/03 04:42:42;;;;;;;2.05;1.00;;;;;;;12.41;100.00;95728.25;5031999;28;20419;-74
2021/08/03 04:45:08;;;;;;;2.35;0.98;;;;;;;12.50;100.00;95722.41;5030480;28;20422;-74
2021/08/03 04:47:39;;;;;;;2.13;1.13;;;;;;;12.47;100.00;95720.84;5031865;28;20418;-73
2021/08/03 04:50:07;;;;;;;2.17;0.90;;;;;;;12.48;100.00;95719.91;5031009;28;20767;-74
2021/08/03 04:52:32;;;;;;;2.23;1.10;;;;;;;12.55;100.00;95713.34;5031828;28;20458;-74
2021/08/03 04:54:59;;;;;;;3.07;1.00;;;;;;;12.60;100.00;95711.22;5031663;28;20453;-74
2021/08/03 04:57:24;;;;;;;0.90;0.88;;;;;;;12.57;100.00;95702.88;5031598;28;20486;-74
2021/08/03 04:59:50;;;;;;;1.80;1.20;;;;;;;12.59;100.00;95706.16;5031700;28;20427;-74
2021/08/03 05:02:15;;;;;;;2.13;0.93;;;;;;;12.55;100.00;95707.31;5031683;28;20500;-74
2021/08/03 05:04:40;;;;;;;2.50;0.90;;;;;;;12.42;100.00;95709.97;5031799;28;20477;-74
2021/08/03 05:07:06;;;;;;;1.33;1.00;;;;;;;12.47;100.00;95707.03;5031193;28;20899;-75
2021/08/03 05:09:31;;;;;;;2.87;1.00;;;;;;;12.45;100.00;95704.53;5031384;28;20426;-74
2021/08/03 05:11:58;;;;;;;3.58;1.17;;;;;;;12.41;100.00;95712.66;5031470;28;20427;-74
2021/08/03 05:14:23;;;;;;;1.73;1.08;;;;;;;12.26;100.00;95710.22;5031222;28;20411;-74
2021/08/03 05:16:49;;;;;;;4.82;1.02;;;;;;;12.29;100.00;95704.81;5031232;28;20407;-74
2021/08/03 05:19:14;;;;;;;1.40;1.03;;;;;;;12.28;100.00;95702.34;5031457;28;20477;-74
2021/08/03 05:21:39;;;;;;;1.90;1.07;;;;;;;12.32;100.00;95706.38;5031369;28;20414;-74
2021/08/03 05:24:05;;;;;;;6.63;1.03;;;;;;;12.29;100.00;95707.41;5031600;28;20587;-75
2021/08/03 05:26:30;;;;;;;3.05;1.23;;;;;;;12.41;100.00;95705.69;5031036;28;20419;-74
2021/08/03 05:28:58;;;;;;;1.80;0.98;;;;;;;12.46;100.00;95703.63;5029959;28;20924;-75
2021/08/03 05:31:23;;;;;;;1.58;1.10;;;;;;;12.64;100.00;95704.03;5031097;28;20430;-74
2021/08/03 05:33:49;;;;;;;1.77;0.93;;;;;;;12.67;100.00;95705.59;5031422;28;20415;-74
2021/08/03 05:36:14;;;;;;;2.63;1.10;;;;;;;12.69;100.00;95701.97;5030769;28;20422;-76
2021/08/03 05:38:40;;;;;;;1.42;1.10;;;;;;;12.72;100.00;95701.75;5031223;28;20418;-74
2021/08/03 05:41:06;;;;;;;3.85;1.20;;;;;;;12.78;100.00;95701.28;5031211;28;20495;-73
2021/08/03 05:43:31;;;;;;;2.70;1.10;;;;;;;12.86;100.00;95708.53;5020513;28;20819;-73
2021/08/03 05:45:58;;;;;;;2.35;1.10;;;;;;;12.82;100.00;95701.91;5013806;28;20933;-75
2021/08/03 05:48:23;;;;;;;1.75;1.00;;;;;;;12.77;100.00;95704.00;5009340;28;20427;-74
2021/08/03 05:50:49;;;;;;;4.05;1.00;;;;;;;12.74;100.00;95712.03;5010349;28;20416;-74
2021/08/03 05:53:14;;;;;;;2.00;1.20;;;;;;;12.84;100.00;95697.44;5011536;28;20417;-77
2021/08/03 05:55:40;;;;;;;2.07;1.07;;;;;;;12.95;100.00;95707.03;5010834;28;20440;-78
2021/08/03 05:58:05;;;;;;;1.30;1.10;;;;;;;12.98;100.00;95709.44;5011006;28;20511;-78
2021/08/03 06:00:31;;;;;;;3.07;1.27;;;;;;;13.02;100.00;95706.47;5010785;28;20421;-78
2021/08/03 06:02:58;;;;;;;2.15;0.95;;;;;;;12.98;100.00;95714.63;5011099;28;20404;-78
2021/08/03 06:05:23;;;;;;;2.47;1.30;;;;;;;13.17;100.00;95711.50;5009500;28;20456;-78
2021/08/03 06:07:51;;;;;;;2.83;1.20;;;;;;;13.42;100.00;95710.50;5010917;28;20455;-78
2021/08/03 06:10:17;;;;;;;2.28;1.10;;;;;;;13.61;100.00;95710.81;5009715;28;20421;-77
2021/08/03 06:12:46;;;;;;;2.50;1.10;;;;;;;13.66;100.00;95708.66;5018261;28;20438;-78
2021/08/03 06:15:12;;;;;;;1.45;1.10;;;;;;;13.83;100.00;95709.16;5030000;28;20912;-79
2021/08/03 06:17:42;;;;;;;4.27;1.20;;;;;;;13.80;100.00;95708.44;5030621;28;20508;-78
2021/08/03 06:20:11;;;;;;;3.80;1.00;;;;;;;13.76;100.00;95714.00;5030524;28;20403;-78
2021/08/03 06:22:37;;;;;;;1.88;1.23;;;;;;;13.83;100.00;95716.94;5030407;28;20427;-75
2021/08/03 06:25:05;;;;;;;3.50;1.20;;;;;;;13.85;100.00;95712.47;5027622;28;20449;-76
2021/08/03 06:27:31;;;;;;;1.60;1.17;;;;;;;13.89;100.00;95717.31;5022129;28;20414;-77
2021/08/03 06:29:59;;;;;;;4.40;0.93;;;;;;;13.71;100.00;95716.94;5029870;28;20419;-76
2021/08/03 06:32:26;;;;;;;2.08;1.30;;;;;;;13.69;100.00;95718.84;5045784;28;20446;-75
2021/08/03 06:34:52;;;;;;;2.13;1.15;;;;;;;13.76;100.00;95714.84;5030626;28;20421;-77
2021/08/03 06:37:18;;;;;;;1.60;1.00;;;;;;;13.72;100.00;95713.41;5030088;28;20407;-75
2021/08/03 06:39:44;;;;;;;5.38;1.15;;;;;;;13.74;100.00;95716.72;5030626;28;20502;-76
2021/08/03 06:42:15;;;;;;;1.33;1.10;;;;;;;13.90;100.00;95718.16;5029195;28;20530;-74
2021/08/03 06:44:47;;;;;;;1.83;1.13;;;;;;;13.97;100.00;95722.75;5030377;28;20419;-77
2021/08/03 06:47:19;;;;;;;2.65;1.20;;;;;;;13.87;100.00;95716.63;5046156;28;20436;-77
2021/08/03 06:49:48;;;;;;;4.22;1.20;;;;;;;13.84;100.00;95729.06;5030705;28;20764;-74
2021/08/03 06:52:16;;;;;;;3.35;0.90;;;;;;;13.86;100.00;95725.34;5030410;28;21119;-75
2021/08/03 06:54:48;;;;;;;2.03;1.05;;;;;;;13.87;100.00;95720.97;5030491;28;20429;-75
2021/08/03 06:57:16;;;;;;;1.75;1.10;;;;;;;14.00;100.00;95719.09;5030097;28;20415;-75
2021/08/03 06:59:47;;;;;;;3.55;1.20;;;;;;;14.06;100.00;95712.59;5030398;28;20407;-75
2021/08/03 07:02:22;;;;;;;2.17;1.00;;;;;;;14.24;100.00;95712.00;5030526;28;20442;-75
2021/08/03 07:04:55;;;;;;;2.08;1.08;;;;;;;14.41;100.00;95710.66;5030636;28;20769;-75
2021/08/03 07:07:22;;;;;;;3.88;1.40;;;;;;;14.36;100.00;95707.59;5029108;28;20430;-76
2021/08/03 07:09:49;;;;;;;2.17;1.20;;;;;;;14.43;100.00;95713.16;5030338;28;20443;-74
2021/08/03 07:12:15;;;;;;;2.75;1.40;;;;;;;14.47;100.00;95715.41;5030309;28;20512;-75
2021/08/03 07:14:41;;;;;;;2.35;1.17;;;;;;;14.75;100.00;95705.38;5016364;28;20456;-75
2021/08/03 07:17:10;;;;;;;2.30;1.10;;;;;;;14.92;100.00;95706.66;5014130;28;20429;-75
2021/08/03 07:19:37;;;;;;;2.28;1.10;;;;;;;14.88;99.07;95708.69;5012996;28;20430;-75
2021/08/03 07:22:03;;;;;;;4.67;0.90;;;;;;;15.09;100.00;95706.13;5014439;28;20420;-75
2021/08/03 07:24:30;;;;;;;3.40;1.00;;;;;;;15.13;100.00;95698.84;5015042;28;20968;-75
2021/08/03 07:26:57;;;;;;;3.00;1.17;;;;;;;15.15;97.77;95702.16;5014730;28;20416;-75
2021/08/03 07:29:23;;;;;;;2.08;1.10;;;;;;;15.29;98.12;95709.69;5013746;28;20835;-74
2021/08/03 07:31:48;;;;;;;2.90;0.90;;;;;;;15.41;97.82;95705.22;5014178;28;20474;-74
2021/08/03 07:34:14;;;;;;;3.67;0.82;;;;;;;15.35;97.03;95713.56;5013937;28;20416;-74
2021/08/03 07:36:39;;;;;;;9.07;1.20;;;;;;;15.44;97.06;95720.63;5013680;28;20413;-75
2021/08/03 07:39:07;;;;;;;4.10;1.30;;;;;;;15.41;96.55;95721.72;5013811;28;20425;-75
2021/08/03 07:41:33;;;;;;;1.02;0.88;;;;;;;15.37;97.18;95714.28;5013552;28;20511;-74
2021/08/03 07:44:01;;;;;;;2.60;1.27;;;;;;;15.45;98.43;95715.28;5030324;28;20422;-74
2021/08/03 07:46:28;;;;;;;2.22;1.02;;;;;;;15.69;98.29;95716.84;5032977;28;20462;-75
2021/08/03 07:48:55;;;;;;;1.55;0.82;;;;;;;15.50;92.42;95717.53;5033433;28;20466;-74
2021/08/03 07:51:21;;;;;;;1.70;1.00;;;;;;;15.70;95.02;95727.16;5033241;28;20426;-75
2021/08/03 07:53:47;;;;;;;3.00;1.20;;;;;;;15.70;94.13;95731.56;5033256;28;20438;-75
2021/08/03 07:56:13;;;;;;;1.88;1.10;;;;;;;15.72;94.04;95729.63;5032832;28;20477;-75
2021/08/03 07:58:38;;;;;;;2.00;1.10;;;;;;;15.62;91.11;95728.72;5033077;28;20422;-75
2021/08/03 08:01:06;;;;;;;1.00;0.80;;;;;;;15.75;93.76;95729.38;5033120;28;20488;-75
2021/08/03 08:03:31;;;;;;;2.38;1.15;;;;;;;15.69;93.71;95729.91;5032020;28;20430;-74
2021/08/03 08:05:56;;;;;;;2.73;1.20;;;;;;;15.77;93.94;95727.47;5032728;28;20407;-75
2021/08/03 08:08:22;;;;;;;2.97;1.13;;;;;;;15.92;93.82;95725.34;5031620;28;20457;-74
2021/08/03 08:10:47;;;;;;;1.53;1.10;;;;;;;15.91;92.19;95727.13;5032970;28;20430;-75
2021/08/03 08:13:13;;;;;;;2.57;1.20;;;;;;;15.96;93.20;95737.19;5032638;28;20414;-74
2021/08/03 08:15:39;;;;;;;1.53;0.90;;;;;;;16.04;93.34;95739.97;5065780;22;20437;-74
2021/08/03 08:18:08;;;;;;;9.75;1.20;;;;;;;16.09;94.08;95745.66;5052850;28;20501;-74
2021/08/03 08:20:34;;;;;;;1.20;1.07;;;;;;;16.06;93.12;95737.25;5052840;28;20898;-74
2021/08/03 08:22:59;;;;;;;1.87;1.20;;;;;;;15.87;92.35;95741.41;5053147;28;20463;-75
2021/08/03 08:25:25;;;;;;;3.07;1.30;;;;;;;15.92;94.29;95738.41;5052260;28;20417;-74
2021/08/03 08:27:50;;;;;;;2.13;1.13;;;;;;;15.91;93.60;95740.19;5053013;28;20413;-74
2021/08/03 08:30:15;;;;;;;4.57;1.47;;;;;;;15.96;95.74;95737.19;5052775;28;20444;-74
2021/08/03 08:32:43;;;;;;;2.17;1.20;;;;;;;16.07;94.89;95736.28;5052717;28;20444;-74
2021/08/03 08:35:11;;;;;;;2.50;1.23;;;;;;;16.10;93.97;95738.63;5052450;28;20502;-73
2021/08/03 08:37:36;;;;;;;2.33;0.90;;;;;;;16.15;94.00;95745.09;5052597;28;20413;-74
2021/08/03 08:40:02;;;;;;;2.45;1.25;;;;;;;15.88;95.57;95750.06;5035272;28;20926;-74
2021/08/03 08:42:29;;;;;;;1.92;1.02;;;;;;;15.65;100.00;95749.38;5037623;28;20520;-73
2021/08/03 08:44:55;;;;;;;2.70;1.05;;;;;;;15.36;100.00;95752.59;5052498;28;20421;-74
2021/08/03 08:47:22;;;;;;;1.90;1.20;;;;;;;15.29;100.00;95754.03;5051980;28;20440;-74
2021/08/03 08:49:48;;;;;;;2.30;1.30;;;;;;;15.30;100.00;95760.91;5052484;28;20428;-73
2021/08/03 08:52:16;;;;;;;2.60;1.15;;;;;;;15.10;100.00;95765.16;5051139;28;20421;-74
2021/08/03 08:54:42;;;;;;;4.25;1.40;;;;;;;15.04;100.00;95751.78;5052034;28;20829;-73
2021/08/03 08:57:08;;;;;;;2.90;1.10;;;;;;;15.08;100.00;95756.59;5050494;28;20503;-74
2021/08/03 08:59:33;;;;;;;1.50;1.00;;;;;;;15.03;100.00;95760.56;5052163;28;20412;-74
2021/08/03 09:01:59;;;;;;;2.00;1.00;;;;;;;14.89;100.00;95752.06;5050699;28;20783;-74
2021/08/03 09:04:25;;;;;;;3.00;0.90;;;;;;;14.63;100.00;95759.34;5050970;28;20516;-74
2021/08/03 09:07:00;;;;;;;2.63;0.83;;;;;;;14.48;100.00;95766.56;5051912;28;20416;-75
2021/08/03 09:09:27;;;;;;;1.13;0.70;;;;;;;14.46;100.00;95765.88;5050428;28;20484;-71
2021/08/03 09:11:53;;;;;;;1.60;1.00;;;;;;;14.34;100.00;95768.56;5051391;28;20429;-77
2021/08/03 09:14:32;;;;;;;1.73;0.90;;;;;;;14.49;100.00;95775.19;5052055;28;20425;-74
2021/08/03 09:16:59;;;;;;;1.48;0.90;;;;;;;14.62;100.00;95775.09;5051246;28;20440;-75
2021/08/03 09:19:29;;;;;;;1.10;0.80;;;;;;;14.66;100.00;95766.09;5051535;28;20416;-75
2021/08/03 09:22:12;;;;;;;1.80;0.90;;;;;;;14.73;100.00;95764.66;5051265;28;20499;-75
2021/08/03 09:24:41;;;;;;;3.47;0.90;;;;;;;14.73;100.00;95775.09;5051322;28;20421;-75
2021/08/03 09:27:07;;;;;;;1.30;1.10;;;;;;;15.00;100.00;95780.69;5051035;28;20463;-75
2021/08/03 09:29:44;;;;;;;0.95;0.77;;;;;;;15.15;100.00;95772.59;5051157;28;20413;-74
2021/08/03 09:32:09;;;;;;;1.30;0.95;;;;;;;15.23;100.00;95775.41;5049883;28;20425;-74
2021/08/03 09:34:34;;;;;;;6.17;1.20;;;;;;;15.18;100.00;95785.41;5049843;28;20425;-74
2021/08/03 09:37:00;;;;;;;2.20;1.10;;;;;;;15.30;100.00;95786.19;5049064;28;20436;-75
2021/08/03 09:39:41;;;;;;;1.30;0.90;;;;;;;15.34;100.00;95787.59;5051234;28;20423;-74
2021/08/03 09:42:12;;;;;;;1.50;0.90;;;;;;;15.50;100.00;95780.19;5050718;28;20414;-74
2021/08/03 09:44:45;;;;;;;1.00;0.80;;;;;;;15.46;100.00;95776.13;5051160;28;20435;-75
2021/08/03 09:47:10;;;;;;;4.00;1.00;;;;;;;15.53;100.00;95779.06;5051012;28;20482;-75
2021/08/03 09:49:39;;;;;;;1.20;1.07;;;;;;;15.64;100.00;95785.06;5051408;28;20910;-74
2021/08/03 09:52:09;;;;;;;3.92;1.10;;;;;;;15.67;100.00;95784.84;5049993;28;20426;-74
2021/08/03 09:54:35;;;;;;;1.67;1.25;;;;;;;15.72;100.00;95794.91;5051296;28;20921;-74
2021/08/03 09:57:03;;;;;;;2.28;1.10;;;;;;;15.80;100.00;95784.66;5049908;28;20428;-74
2021/08/03 09:59:33;;;;;;;1.53;1.00;;;;;;;15.81;100.00;95783.69;5049437;28;20571;-74
2021/08/03 10:01:59;;;;;;;1.67;1.00;;;;;;;15.85;100.00;95782.50;5049265;28;20467;-75
2021/08/03 10:04:26;;;;;;;2.20;1.00;;;;;;;15.73;100.00;95758.22;5050500;28;20409;-74
2021/08/03 10:06:52;;;;;;;2.03;1.00;;;;;;;15.61;100.00;95750.53;5050439;28;20455;-74
2021/08/03 10:09:18;;;;;;;1.40;1.00;;;;;;;15.99;100.00;95750.00;5049455;28;20477;-74
2021/08/03 10:11:44;;;;;;;1.58;1.20;;;;;;;16.11;100.00;95740.28;5050450;28;20425;-74
2021/08/03 10:14:11;;;;;;;1.65;1.00;;;;;;;16.18;100.00;95739.63;5050296;28;20825;-75
2021/08/03 10:16:37;;;;;;;1.88;1.10;;;;;;;16.19;100.00;95728.22;5050199;28;20467;-74
2021/08/03 10:19:02;;;;;;;4.70;1.20;;;;;;;16.30;100.00;95731.69;5050803;28;20433;-74
2021/08/03 10:21:31;;;;;;;2.22;1.05;;;;;;;16.26;100.00;95727.69;5050675;28;20420;-74
2021/08/03 10:24:01;;;;;;;2.95;1.27;;;;;;;16.22;100.00;95729.75;5050511;28;20405;-74
2021/08/03 10:26:27;;;;;;;1.45;1.05;;;;;;;16.25;100.00;95726.88;5050208;28;20497;-74
2021/08/03 10:29:22;;;;;;;1.40;1.10;;;;;;;16.27;100.00;95726.72;5049325;28;20973;-75
2021/08/03 10:31:48;;;;;;;3.00;1.20;;;;;;;16.29;100.00;95724.81;5050551;28;20964;-75
2021/08/03 10:34:47;;;;;;;2.38;1.33;;;;;;;16.31;100.00;95733.34;5050460;28;20447;-75
2021/08/03 10:37:13;;;;;;;2.10;1.40;;;;;;;16.57;100.00;95718.81;5050197;28;20940;-75
2021/08/03 10:39:48;;;;;;;1.75;1.20;;;;;;;16.93;100.00;95724.44;5049273;28;20433;-75
2021/08/03 10:42:14;;;;;;;2.67;1.20;;;;;;;17.03;97.02;95734.91;5048648;28;20429;-75
2021/08/03 10:44:44;;;;;;;1.80;1.30;;;;;;;17.21;97.11;95724.59;5050239;28;20405;-75
2021/08/03 10:47:47;;;;;;;1.73;1.25;;;;;;;17.67;100.00;95724.66;5048790;28;20425;-74
2021/08/03 10:50:15;;;;;;;2.60;1.08;;;;;;;17.83;92.63;95723.28;5053015;28;20429;-74
2021/08/03 10:52:54;;;;;;;0.82;0.82;;;;;;;18.02;91.86;95712.75;5052978;28;20417;-75
2021/08/03 10:55:34;;;;;;;1.67;1.10;;;;;;;18.20;89.53;95712.00;5053779;28;20921;-75
2021/08/03 10:58:20;;;;;;;1.70;1.10;;;;;;;18.03;88.94;95695.25;5053958;28;20848;-75
2021/08/03 11:00:48;;;;;;;3.72;1.17;;;;;;;18.10;87.20;95705.00;5054044;28;20413;-74
2021/08/03 11:03:39;;;;;;;1.83;1.20;;;;;;;18.46;85.13;95705.09;5052739;28;20432;-75
2021/08/03 11:06:32;;;;;;;2.73;1.03;;;;;;;18.27;84.61;95686.84;5052245;28;20428;-76
2021/08/03 11:08:57;;;;;;;2.05;1.10;;;;;;;18.47;84.93;95692.84;5052714;28;20504;-75
2021/08/03 11:11:25;;;;;;;1.70;1.20;;;;;;;17.99;84.46;95694.69;5052463;28;20966;-75
2021/08/03 11:13:52;;;;;;;2.15;1.08;;;;;;;18.06;85.68;95689.72;5036799;28;20407;-75
2021/08/03 11:16:54;;;;;;;1.60;1.20;;;;;;;18.10;87.40;95693.69;5033424;28;20422;-75
2021/08/03 11:19:33;;;;;;;1.48;1.20;;;;;;;18.05;84.78;95691.47;5033939;28;20415;-75
2021/08/03 11:22:00;;;;;;;0.93;0.80;;;;;;;18.02;80.85;95697.03;5033790;28;20425;-74
2021/08/03 11:24:33;;;;;;;2.92;1.00;;;;;;;17.89;81.80;95707.00;5032496;28;20517;-74
2021/08/03 11:26:59;;;;;;;1.65;1.10;;;;;;;17.68;81.92;95696.69;5033305;28;20963;-74
2021/08/03 11:29:26;;;;;;;1.10;1.00;;;;;;;17.48;82.48;95705.56;5033646;28;20411;-75
2021/08/03 11:31:54;;;;;;;2.45;1.20;;;;;;;17.30;86.42;95697.56;5033550;28;20426;-74